Time;durP1;ratioP1;P1;durP2;ratioP2;P2;SDS_P1;SDS_P2;PMS_P1;PMS_P2;Temp;Humidity;BMP_temperature;BMP_pressure;BME280_temperature;BME280_humidity;BME280_pressure;Samples;Min_cycle;Max_cycle;Signal;HPM_P1;HPM_P2
2022/09/12 00:01:54;;;;;;;0.47;0.47;;;;;;;;;;5111486;28;20213;-87
2022/09/12 00:04:21;;;;;;;1.30;1.20;;;;;;;;;;5111428;28;21110;-89
2022/09/12 00:06:48;;;;;;;0.70;0.70;;;;;;;;;;5110795;28;20840;-87
2022/09/12 00:09:15;;;;;;;2.13;0.60;;;;;;;;;;5110281;28;20584;-87
2022/09/12 00:11:44;;;;;;;0.60;0.60;;;;;;;;;;5110469;28;20203;-88
2022/09/12 00:14:13;;;;;;;0.80;0.80;;;;;;;;;;5110429;28;20209;-88
2022/09/12 00:16:43;;;;;;;0.67;0.67;;;;;;;;;;5095772;28;20234;-86
2022/09/12 00:19:11;;;;;;;1.40;1.27;;;;;;;;;;5110615;28;20274;-87
2022/09/12 00:21:39;;;;;;;0.63;0.63;;;;;;;;;;5110332;28;20207;-88
2022/09/12 00:24:06;;;;;;;0.60;0.60;;;;;;;;;;5111671;28;20194;-88
2022/09/12 00:26:33;;;;;;;0.70;0.70;;;;;;;;;;5110446;28;20316;-86
2022/09/12 00:29:00;;;;;;;0.50;0.50;;;;;;;;;;5111295;28;20194;-88
2022/09/12 00:31:27;;;;;;;0.80;0.80;;;;;;;;;;5111094;28;20639;-88
2022/09/12 00:33:59;;;;;;;0.70;0.70;;;;;;;;;;5110989;28;20214;-87
2022/09/12 00:36:27;;;;;;;0.70;0.70;;;;;;;;;;5111098;28;20200;-90
2022/09/12 00:38:54;;;;;;;0.80;0.80;;;;;;;;;;5110761;28;20732;-94
2022/09/12 00:41:23;;;;;;;0.60;0.60;;;;;;;;;;5111677;28;20206;-93
2022/09/12 00:43:51;;;;;;;0.83;0.83;;;;;;;;;;5111784;28;20200;-90
2022/09/12 00:46:28;;;;;;;1.00;1.00;;;;;;;;;;5111145;28;20589;-90
2022/09/12 00:48:59;;;;;;;0.47;0.47;;;;;;;;;;5111985;28;20207;-88
2022/09/12 00:51:29;;;;;;;0.83;0.73;;;;;;;;;;5111608;28;20215;-89
2022/09/12 00:53:58;;;;;;;0.50;0.50;;;;;;;;;;5113946;28;20205;-89
2022/09/12 00:56:25;;;;;;;0.60;0.60;;;;;;;;;;5115367;28;20298;-89
2022/09/12 00:58:57;;;;;;;0.63;0.57;;;;;;;;;;5115159;28;20251;-88
2022/09/12 01:01:24;;;;;;;0.70;0.70;;;;;;;;;;5115377;28;20639;-92
2022/09/12 01:03:51;;;;;;;0.70;0.70;;;;;;;;;;5115534;28;20220;-94
2022/09/12 01:06:22;;;;;;;0.60;0.60;;;;;;;;;;5115118;28;20211;-91
2022/09/12 01:08:49;;;;;;;0.70;0.70;;;;;;;;;;5115502;28;20210;-89
2022/09/12 01:11:17;;;;;;;0.50;0.50;;;;;;;;;;5115285;28;20257;-94
2022/09/12 01:13:44;;;;;;;0.60;0.60;;;;;;;;;;5115234;28;20623;-93
2022/09/12 01:16:11;;;;;;;0.93;0.67;;;;;;;;;;5100930;28;20240;-90
2022/09/12 01:18:47;;;;;;;0.60;0.60;;;;;;;;;;5114971;28;20201;-88
2022/09/12 01:21:23;;;;;;;0.93;0.93;;;;;;;;;;5115228;28;20211;-93
2022/09/12 01:24:29;;;;;;;0.40;0.40;;;;;;;;;;5115467;28;20204;-84
2022/09/12 01:27:17;;;;;;;0.30;0.30;;;;;;;;;;5109433;28;20220;-93
2022/09/12 01:30:04;;;;;;;0.60;0.60;;;;;;;;;;5115088;28;20200;-94
2022/09/12 01:32:41;;;;;;;0.50;0.50;;;;;;;;;;5112074;28;20298;-90
2022/09/12 01:35:16;;;;;;;0.47;0.47;;;;;;;;;;5115273;28;20261;-91
2022/09/12 01:37:50;;;;;;;0.50;0.50;;;;;;;;;;5114689;28;20228;-90
2022/09/12 01:40:22;;;;;;;0.87;0.87;;;;;;;;;;5114097;28;20205;-94
2022/09/12 01:42:55;;;;;;;0.73;0.50;;;;;;;;;;5113728;28;20209;-94
2022/09/12 01:45:24;;;;;;;1.23;1.17;;;;;;;;;;5114857;28;20265;-94
2022/09/12 01:47:58;;;;;;;0.30;0.30;;;;;;;;;;5114748;28;20230;-95
2022/09/12 01:50:28;;;;;;;0.80;0.80;;;;;;;;;;5114777;28;20201;-95
2022/09/12 01:52:57;;;;;;;0.53;0.53;;;;;;;;;;5114713;28;20208;-91
2022/09/12 01:55:26;;;;;;;1.70;0.60;;;;;;;;;;5112912;28;20211;-92
2022/09/12 01:57:57;;;;;;;0.57;0.53;;;;;;;;;;5114288;28;20204;-91
2022/09/12 02:00:24;;;;;;;0.70;0.70;;;;;;;;;;5113538;28;20213;-91
2022/09/12 02:02:55;;;;;;;0.50;0.50;;;;;;;;;;5114192;28;20201;-91
2022/09/12 02:05:28;;;;;;;0.20;0.20;;;;;;;;;;5114460;28;20198;-92
2022/09/12 02:07:58;;;;;;;0.40;0.40;;;;;;;;;;5114035;28;20231;-89
2022/09/12 02:10:26;;;;;;;0.63;0.63;;;;;;;;;;5114229;28;20205;-90
2022/09/12 02:12:54;;;;;;;0.50;0.50;;;;;;;;;;5111155;28;20666;-90
2022/09/12 02:15:24;;;;;;;0.37;0.37;;;;;;;;;;5110789;28;20203;-90
2022/09/12 02:17:53;;;;;;;0.43;0.43;;;;;;;;;;5107532;28;20204;-89
2022/09/12 02:20:22;;;;;;;0.93;0.57;;;;;;;;;;5111577;28;20663;-89
2022/09/12 02:22:50;;;;;;;0.50;0.50;;;;;;;;;;5106030;28;20249;-89
2022/09/12 02:25:18;;;;;;;0.63;0.63;;;;;;;;;;5113682;28;20203;-91
2022/09/12 02:27:48;;;;;;;0.33;0.33;;;;;;;;;;5113515;28;20259;-91
2022/09/12 02:30:16;;;;;;;0.60;0.60;;;;;;;;;;5114155;28;20199;-91
2022/09/12 02:32:51;;;;;;;0.37;0.37;;;;;;;;;;5113522;28;20589;-93
2022/09/12 02:35:23;;;;;;;0.30;0.30;;;;;;;;;;5113447;28;20259;-87
2022/09/12 02:37:56;;;;;;;0.50;0.50;;;;;;;;;;5113401;28;20196;-89
2022/09/12 02:40:24;;;;;;;0.50;0.50;;;;;;;;;;5113453;28;20199;-89
2022/09/12 02:42:51;;;;;;;0.40;0.40;;;;;;;;;;5105923;28;20682;-88
2022/09/12 02:45:18;;;;;;;0.50;0.50;;;;;;;;;;5093002;28;20204;-89
2022/09/12 02:47:48;;;;;;;0.47;0.47;;;;;;;;;;5091636;28;20301;-88
2022/09/12 02:50:15;;;;;;;0.57;0.57;;;;;;;;;;5091864;28;20597;-88
2022/09/12 02:52:43;;;;;;;0.40;0.40;;;;;;;;;;5091559;28;20677;-87
2022/09/12 02:55:11;;;;;;;0.50;0.50;;;;;;;;;;5098687;28;20272;-87
2022/09/12 02:57:38;;;;;;;0.40;0.40;;;;;;;;;;5111899;28;20207;-88
2022/09/12 03:00:06;;;;;;;1.37;0.57;;;;;;;;;;5112809;28;20205;-88
2022/09/12 03:02:45;;;;;;;0.40;0.40;;;;;;;;;;5112905;28;20238;-89
2022/09/12 03:05:25;;;;;;;0.57;0.57;;;;;;;;;;5113014;28;20695;-88
2022/09/12 03:08:15;;;;;;;0.63;0.63;;;;;;;;;;5111443;28;20608;-89
2022/09/12 03:10:52;;;;;;;0.60;0.60;;;;;;;;;;5089836;28;20191;-86
2022/09/12 03:13:24;;;;;;;0.40;0.40;;;;;;;;;;5112370;28;20232;-89
2022/09/12 03:16:02;;;;;;;1.07;1.00;;;;;;;;;;5101177;28;20227;-89
2022/09/12 03:18:37;;;;;;;0.60;0.60;;;;;;;;;;5110461;28;20578;-85
2022/09/12 03:21:10;;;;;;;0.57;0.57;;;;;;;;;;5111974;28;20203;-87
2022/09/12 03:23:43;;;;;;;1.17;1.07;;;;;;;;;;5093657;28;20204;-87
2022/09/12 03:26:16;;;;;;;0.90;0.90;;;;;;;;;;5096466;28;20216;-86
2022/09/12 03:28:44;;;;;;;0.80;0.80;;;;;;;;;;5111527;28;20333;-85
2022/09/12 03:31:14;;;;;;;0.97;0.97;;;;;;;;;;5110956;28;20201;-87
2022/09/12 03:33:41;;;;;;;1.10;1.10;;;;;;;;;;5111867;28;20203;-84
2022/09/12 03:36:15;;;;;;;0.80;0.80;;;;;;;;;;5112025;28;20204;-85
2022/09/12 03:38:44;;;;;;;0.70;0.70;;;;;;;;;;5111854;28;20200;-87
2022/09/12 03:41:11;;;;;;;0.80;0.80;;;;;;;;;;5104353;28;20591;-85
2022/09/12 03:43:38;;;;;;;1.23;0.87;;;;;;;;;;5110352;28;20608;-86
2022/09/12 03:46:05;;;;;;;1.50;1.40;;;;;;;;;;5109942;28;20211;-85
2022/09/12 03:48:32;;;;;;;0.80;0.80;;;;;;;;;;5111677;28;20234;-84
2022/09/12 03:51:03;;;;;;;0.70;0.70;;;;;;;;;;5110497;28;20208;-85
2022/09/12 03:53:31;;;;;;;1.33;1.23;;;;;;;;;;5112042;28;20204;-85
2022/09/12 03:55:59;;;;;;;1.00;1.00;;;;;;;;;;5110463;28;20208;-87
2022/09/12 03:58:30;;;;;;;0.90;0.90;;;;;;;;;;5111901;28;20634;-86
2022/09/12 04:00:58;;;;;;;0.90;0.90;;;;;;;;;;5111808;28;20754;-87
2022/09/12 04:03:24;;;;;;;0.97;0.97;;;;;;;;;;5110798;28;20200;-86
2022/09/12 04:05:51;;;;;;;0.83;0.83;;;;;;;;;;5093315;28;20731;-86
2022/09/12 04:08:18;;;;;;;0.90;0.90;;;;;;;;;;5111562;28;20223;-86
2022/09/12 04:10:45;;;;;;;0.87;0.87;;;;;;;;;;5109780;28;20202;-82
2022/09/12 04:13:13;;;;;;;1.00;1.00;;;;;;;;;;5111082;28;20260;-85
2022/09/12 04:15:40;;;;;;;0.70;0.70;;;;;;;;;;5101761;28;20235;-84
2022/09/12 04:18:07;;;;;;;0.83;0.83;;;;;;;;;;5104870;28;20202;-84
2022/09/12 04:20:33;;;;;;;0.73;0.73;;;;;;;;;;5095675;28;20257;-85
2022/09/12 04:23:00;;;;;;;0.70;0.70;;;;;;;;;;5108787;28;20207;-85
2022/09/12 04:25:27;;;;;;;0.63;0.63;;;;;;;;;;5111205;28;20199;-85
2022/09/12 04:27:54;;;;;;;0.50;0.50;;;;;;;;;;5108587;28;20219;-84
2022/09/12 04:30:22;;;;;;;0.90;0.90;;;;;;;;;;5114919;27;20211;-84
2022/09/12 04:32:49;;;;;;;0.93;0.93;;;;;;;;;;5108927;28;20704;-83
2022/09/12 04:35:15;;;;;;;0.80;0.80;;;;;;;;;;5110729;28;20201;-84
2022/09/12 04:37:43;;;;;;;0.90;0.90;;;;;;;;;;5113515;28;20278;-84
2022/09/12 04:40:10;;;;;;;1.00;1.00;;;;;;;;;;5114595;28;20682;-84
2022/09/12 04:42:36;;;;;;;0.80;0.80;;;;;;;;;;5114906;28;20605;-85
2022/09/12 04:45:05;;;;;;;0.73;0.73;;;;;;;;;;5114840;28;20203;-83
2022/09/12 04:47:33;;;;;;;0.80;0.80;;;;;;;;;;5114507;28;20206;-84
2022/09/12 04:49:59;;;;;;;0.80;0.80;;;;;;;;;;5115129;27;20201;-83
2022/09/12 04:52:26;;;;;;;0.73;0.73;;;;;;;;;;5114142;28;20611;-83
2022/09/12 04:54:53;;;;;;;0.97;0.97;;;;;;;;;;5115217;28;20280;-83
2022/09/12 04:57:20;;;;;;;1.00;1.00;;;;;;;;;;5114429;28;20698;-82
2022/09/12 04:59:47;;;;;;;0.57;0.57;;;;;;;;;;5114257;28;20199;-82
2022/09/12 05:02:13;;;;;;;0.83;0.83;;;;;;;;;;5114557;28;20211;-83
2022/09/12 05:04:42;;;;;;;0.90;0.90;;;;;;;;;;5114740;28;20215;-81
2022/09/12 05:07:08;;;;;;;0.80;0.80;;;;;;;;;;5113695;28;20204;-81
2022/09/12 05:09:35;;;;;;;0.70;0.70;;;;;;;;;;5113944;28;20237;-82
2022/09/12 05:12:03;;;;;;;1.17;0.83;;;;;;;;;;5114011;28;20705;-80
2022/09/12 05:14:31;;;;;;;1.00;1.00;;;;;;;;;;5114418;28;20207;-82
2022/09/12 05:17:00;;;;;;;0.80;0.80;;;;;;;;;;5113798;28;20227;-82
2022/09/12 05:19:26;;;;;;;0.90;0.90;;;;;;;;;;5113976;28;20287;-82
2022/09/12 05:21:55;;;;;;;0.90;0.90;;;;;;;;;;5113814;28;20203;-82
2022/09/12 05:24:21;;;;;;;0.70;0.70;;;;;;;;;;5113817;28;20261;-82
2022/09/12 05:26:48;;;;;;;1.30;1.20;;;;;;;;;;5113619;28;20200;-82
2022/09/12 05:29:15;;;;;;;0.70;0.70;;;;;;;;;;5114064;28;20306;-84
2022/09/12 05:31:42;;;;;;;0.90;0.90;;;;;;;;;;5113712;28;20325;-82
2022/09/12 05:34:10;;;;;;;1.10;1.10;;;;;;;;;;5113857;28;20218;-82
2022/09/12 05:36:37;;;;;;;0.80;0.80;;;;;;;;;;5113712;28;20213;-81
2022/09/12 05:39:05;;;;;;;0.80;0.63;;;;;;;;;;5113038;28;20201;-82
2022/09/12 05:41:33;;;;;;;0.70;0.70;;;;;;;;;;5113751;28;20199;-82
2022/09/12 05:44:03;;;;;;;0.87;0.87;;;;;;;;;;5113785;28;20195;-83
2022/09/12 05:46:31;;;;;;;0.40;0.40;;;;;;;;;;5113436;28;20196;-81
2022/09/12 05:49:02;;;;;;;0.50;0.50;;;;;;;;;;5113218;28;20219;-81
2022/09/12 05:51:33;;;;;;;0.50;0.50;;;;;;;;;;5113309;28;20239;-83
2022/09/12 05:54:02;;;;;;;0.43;0.43;;;;;;;;;;5112978;28;20208;-81
2022/09/12 05:56:32;;;;;;;1.00;1.00;;;;;;;;;;5113171;28;20696;-82
2022/09/12 05:59:00;;;;;;;0.47;0.47;;;;;;;;;;5113287;28;20203;-82
2022/09/12 06:01:28;;;;;;;0.50;0.50;;;;;;;;;;5112904;27;20684;-83
2022/09/12 06:03:57;;;;;;;0.50;0.50;;;;;;;;;;5113053;28;20369;-82
2022/09/12 06:06:26;;;;;;;0.70;0.70;;;;;;;;;;5113143;28;20202;-81
2022/09/12 06:08:56;;;;;;;0.40;0.40;;;;;;;;;;5112802;28;20313;-84
2022/09/12 06:11:27;;;;;;;0.60;0.60;;;;;;;;;;5112810;28;20206;-82
2022/09/12 06:13:56;;;;;;;0.50;0.50;;;;;;;;;;5112381;28;20699;-82
2022/09/12 06:16:24;;;;;;;0.40;0.40;;;;;;;;;;5098121;28;20319;-80
2022/09/12 06:18:52;;;;;;;0.40;0.40;;;;;;;;;;5113106;28;20210;-82
2022/09/12 06:21:20;;;;;;;0.80;0.80;;;;;;;;;;5112937;28;20245;-83
2022/09/12 06:23:47;;;;;;;0.40;0.40;;;;;;;;;;5098406;28;20190;-84
2022/09/12 06:26:16;;;;;;;0.60;0.60;;;;;;;;;;5112453;28;20202;-80
2022/09/12 06:28:44;;;;;;;0.57;0.57;;;;;;;;;;5112754;28;20276;-81
2022/09/12 06:31:14;;;;;;;0.50;0.50;;;;;;;;;;5112069;28;20465;-83
2022/09/12 06:33:43;;;;;;;0.50;0.50;;;;;;;;;;5112913;28;20625;-83
2022/09/12 06:36:11;;;;;;;0.40;0.40;;;;;;;;;;5112661;28;20206;-82
2022/09/12 06:38:38;;;;;;;0.43;0.43;;;;;;;;;;5110550;28;20210;-81
2022/09/12 06:41:06;;;;;;;0.40;0.40;;;;;;;;;;5112695;28;20206;-83
2022/09/12 06:43:33;;;;;;;0.40;0.40;;;;;;;;;;5112481;28;20214;-83
2022/09/12 06:46:00;;;;;;;0.50;0.50;;;;;;;;;;5111953;28;20195;-82
2022/09/12 06:48:29;;;;;;;0.50;0.50;;;;;;;;;;5112428;28;20226;-84
2022/09/12 06:50:57;;;;;;;1.93;0.87;;;;;;;;;;5111257;28;20266;-83
2022/09/12 06:53:24;;;;;;;0.40;0.40;;;;;;;;;;5111847;28;20688;-83
2022/09/12 06:55:56;;;;;;;0.60;0.60;;;;;;;;;;5112281;28;20225;-82
2022/09/12 06:58:22;;;;;;;0.50;0.50;;;;;;;;;;5112117;28;20598;-84
2022/09/12 07:00:49;;;;;;;0.60;0.60;;;;;;;;;;5111892;28;20199;-83
2022/09/12 07:03:17;;;;;;;0.63;0.63;;;;;;;;;;5111628;28;20230;-83
2022/09/12 07:05:45;;;;;;;0.67;0.67;;;;;;;;;;5111793;28;20212;-82
2022/09/12 07:08:12;;;;;;;0.53;0.53;;;;;;;;;;5111653;28;20728;-83
2022/09/12 07:10:39;;;;;;;0.40;0.40;;;;;;;;;;5112046;28;20226;-88
2022/09/12 07:13:05;;;;;;;0.50;0.50;;;;;;;;;;5111882;28;20195;-83
2022/09/12 07:15:36;;;;;;;0.60;0.60;;;;;;;;;;5102824;27;20235;-83
2022/09/12 07:18:03;;;;;;;0.43;0.40;;;;;;;;;;5106500;28;20199;-84
2022/09/12 07:20:31;;;;;;;0.50;0.50;;;;;;;;;;5111791;28;20207;-83
2022/09/12 07:23:00;;;;;;;0.40;0.40;;;;;;;;;;5111557;28;20282;-84
2022/09/12 07:25:26;;;;;;;0.50;0.50;;;;;;;;;;5111819;28;20260;-83
2022/09/12 07:27:54;;;;;;;0.63;0.63;;;;;;;;;;5111868;28;20285;-82
2022/09/12 07:30:21;;;;;;;0.40;0.40;;;;;;;;;;5111225;28;20219;-84
2022/09/12 07:32:48;;;;;;;0.40;0.40;;;;;;;;;;5111451;28;20199;-81
2022/09/12 07:35:15;;;;;;;0.50;0.50;;;;;;;;;;5111412;28;20207;-83
2022/09/12 07:37:42;;;;;;;0.50;0.50;;;;;;;;;;5111297;28;20210;-84
2022/09/12 07:40:13;;;;;;;0.33;0.33;;;;;;;;;;5111162;28;20199;-82
2022/09/12 07:42:40;;;;;;;1.60;0.50;;;;;;;;;;5111224;28;20203;-81
2022/09/12 07:45:09;;;;;;;0.37;0.37;;;;;;;;;;5111270;28;20204;-82
2022/09/12 07:47:36;;;;;;;0.40;0.40;;;;;;;;;;5110832;28;20196;-82
2022/09/12 07:50:03;;;;;;;0.43;0.43;;;;;;;;;;5111068;28;20227;-82
2022/09/12 07:52:30;;;;;;;0.37;0.37;;;;;;;;;;5111159;28;20195;-90
2022/09/12 07:54:57;;;;;;;0.47;0.47;;;;;;;;;;5111464;28;20207;-82
2022/09/12 07:57:25;;;;;;;0.40;0.40;;;;;;;;;;5110522;28;20701;-82
2022/09/12 07:59:52;;;;;;;0.40;0.40;;;;;;;;;;5111494;28;20196;-82
2022/09/12 08:02:19;;;;;;;0.30;0.30;;;;;;;;;;5110571;28;20217;-82
2022/09/12 08:04:47;;;;;;;0.40;0.40;;;;;;;;;;5111118;28;20207;-84
2022/09/12 08:07:18;;;;;;;0.60;0.60;;;;;;;;;;5110963;28;20626;-82
2022/09/12 08:09:45;;;;;;;0.50;0.50;;;;;;;;;;5110853;28;20697;-82
2022/09/12 08:12:11;;;;;;;0.50;0.50;;;;;;;;;;5110867;28;20203;-81
2022/09/12 08:14:39;;;;;;;0.50;0.50;;;;;;;;;;5109910;28;20191;-82
2022/09/12 08:17:06;;;;;;;0.60;0.60;;;;;;;;;;5097273;28;20227;-82
2022/09/12 08:19:33;;;;;;;0.50;0.50;;;;;;;;;;5111146;28;20235;-82
2022/09/12 08:22:00;;;;;;;0.57;0.57;;;;;;;;;;5110666;28;20195;-83
2022/09/12 08:24:26;;;;;;;0.50;0.50;;;;;;;;;;5110810;28;20210;-81
2022/09/12 08:26:53;;;;;;;2.57;1.93;;;;;;;;;;5110842;28;20223;-82
2022/09/12 08:29:20;;;;;;;0.50;0.50;;;;;;;;;;5110174;28;20705;-82
2022/09/12 08:31:48;;;;;;;0.40;0.40;;;;;;;;;;5110280;28;21017;-83
2022/09/12 08:34:18;;;;;;;0.50;0.50;;;;;;;;;;5111045;28;20203;-83
2022/09/12 08:36:45;;;;;;;0.50;0.50;;;;;;;;;;5110464;28;20204;-82
2022/09/12 08:39:13;;;;;;;0.40;0.40;;;;;;;;;;5110830;28;20210;-82
2022/09/12 08:41:41;;;;;;;0.60;0.60;;;;;;;;;;5109194;28;20199;-83
2022/09/12 08:44:19;;;;;;;0.40;0.40;;;;;;;;;;5110591;28;20192;-83
2022/09/12 08:46:56;;;;;;;0.40;0.40;;;;;;;;;;5110813;28;20212;-82
2022/09/12 08:49:27;;;;;;;0.40;0.40;;;;;;;;;;5110215;28;20677;-82
2022/09/12 08:51:54;;;;;;;1.23;0.50;;;;;;;;;;5110656;28;20200;-82
2022/09/12 08:54:25;;;;;;;0.40;0.40;;;;;;;;;;5110174;28;20203;-85
2022/09/12 08:56:55;;;;;;;0.30;0.30;;;;;;;;;;5110186;28;20207;-81
2022/09/12 08:59:22;;;;;;;0.50;0.50;;;;;;;;;;5110503;28;20586;-82
2022/09/12 09:01:52;;;;;;;0.47;0.47;;;;;;;;;;5110269;28;20217;-81
2022/09/12 09:04:37;;;;;;;0.40;0.40;;;;;;;;;;5110115;28;20206;-82
2022/09/12 09:07:19;;;;;;;0.40;0.40;;;;;;;;;;5110602;28;20297;-84
2022/09/12 09:09:58;;;;;;;0.40;0.40;;;;;;;;;;5110330;28;20225;-86
2022/09/12 09:12:31;;;;;;;0.30;0.30;;;;;;;;;;5110561;28;20204;-82
2022/09/12 09:15:08;;;;;;;0.40;0.40;;;;;;;;;;5110217;28;20583;-83
2022/09/12 09:17:40;;;;;;;0.47;0.47;;;;;;;;;;5104435;28;20234;-82
2022/09/12 09:20:17;;;;;;;0.50;0.50;;;;;;;;;;5114189;28;20199;-82
2022/09/12 09:22:47;;;;;;;0.40;0.40;;;;;;;;;;5114038;28;20618;-85
2022/09/12 09:25:19;;;;;;;0.70;0.70;;;;;;;;;;5114279;28;20206;-84
2022/09/12 09:27:50;;;;;;;0.60;0.60;;;;;;;;;;5113658;28;20215;-84
2022/09/12 09:30:20;;;;;;;0.50;0.50;;;;;;;;;;5113670;28;20286;-81
2022/09/12 09:32:52;;;;;;;0.50;0.50;;;;;;;;;;5113491;28;20203;-81
2022/09/12 09:35:22;;;;;;;0.50;0.50;;;;;;;;;;5113942;28;20579;-81
2022/09/12 09:38:00;;;;;;;0.40;0.40;;;;;;;;;;5113303;28;20556;-82
2022/09/12 09:40:33;;;;;;;0.40;0.40;;;;;;;;;;5113681;28;20199;-82
2022/09/12 09:43:05;;;;;;;0.37;0.37;;;;;;;;;;5113662;28;20196;-81
2022/09/12 09:45:32;;;;;;;0.37;0.37;;;;;;;;;;5113844;28;20203;-81
2022/09/12 09:48:05;;;;;;;0.60;0.60;;;;;;;;;;5113523;28;20199;-81
2022/09/12 09:50:32;;;;;;;0.57;0.57;;;;;;;;;;5112981;28;20243;-82
2022/09/12 09:53:01;;;;;;;0.40;0.40;;;;;;;;;;5113595;28;20203;-81
2022/09/12 09:55:32;;;;;;;0.40;0.40;;;;;;;;;;5113655;28;20327;-81
2022/09/12 09:57:59;;;;;;;0.57;0.57;;;;;;;;;;5113303;28;20199;-81
2022/09/12 10:00:30;;;;;;;0.40;0.40;;;;;;;;;;5113367;28;20200;-82
2022/09/12 10:03:28;;;;;;;0.63;0.63;;;;;;;;;;5113032;28;20196;-81
2022/09/12 10:05:57;;;;;;;0.50;0.50;;;;;;;;;;5112914;28;20214;-81
2022/09/12 10:08:26;;;;;;;0.40;0.40;;;;;;;;;;5113031;28;20204;-81
2022/09/12 10:10:54;;;;;;;0.50;0.50;;;;;;;;;;5112984;28;20258;-81
2022/09/12 10:13:25;;;;;;;0.53;0.53;;;;;;;;;;5112677;28;20203;-82
2022/09/12 10:15:59;;;;;;;0.40;0.40;;;;;;;;;;5101943;28;20235;-81
2022/09/12 10:18:42;;;;;;;0.40;0.40;;;;;;;;;;5110953;28;20191;-80
2022/09/12 10:21:28;;;;;;;0.40;0.40;;;;;;;;;;5112650;28;20212;-81
2022/09/12 10:24:02;;;;;;;0.50;0.50;;;;;;;;;;5112073;28;20693;-83
2022/09/12 10:26:33;;;;;;;0.43;0.43;;;;;;;;;;5112579;28;20200;-82
2022/09/12 10:29:04;;;;;;;0.50;0.50;;;;;;;;;;5112805;28;20210;-80
2022/09/12 10:31:38;;;;;;;0.50;0.50;;;;;;;;;;5112684;28;20229;-81
2022/09/12 10:34:06;;;;;;;0.50;0.50;;;;;;;;;;5112508;28;20196;-81
2022/09/12 10:36:37;;;;;;;0.40;0.40;;;;;;;;;;5112304;28;20233;-81
2022/09/12 10:39:04;;;;;;;0.57;0.57;;;;;;;;;;5112184;28;20223;-82
2022/09/12 10:41:39;;;;;;;0.53;0.53;;;;;;;;;;5112711;28;20199;-80
2022/09/12 10:44:09;;;;;;;0.53;0.53;;;;;;;;;;5112262;28;20191;-81
2022/09/12 10:46:36;;;;;;;0.50;0.50;;;;;;;;;;5112180;27;20653;-81
2022/09/12 10:49:21;;;;;;;0.53;0.53;;;;;;;;;;5112074;28;20206;-81
2022/09/12 10:51:48;;;;;;;0.50;0.50;;;;;;;;;;5110940;28;20219;-80
2022/09/12 10:54:18;;;;;;;0.70;0.70;;;;;;;;;;5112264;28;20231;-81
2022/09/12 10:56:53;;;;;;;0.50;0.50;;;;;;;;;;5111667;28;20214;-80
2022/09/12 10:59:26;;;;;;;0.40;0.40;;;;;;;;;;5111745;28;20199;-81
2022/09/12 11:01:57;;;;;;;0.60;0.60;;;;;;;;;;5111755;28;20214;-80
2022/09/12 11:04:32;;;;;;;0.63;0.63;;;;;;;;;;5112035;28;20191;-80
2022/09/12 11:07:10;;;;;;;0.67;0.60;;;;;;;;;;5111752;28;20203;-80
2022/09/12 11:09:42;;;;;;;5.63;1.23;;;;;;;;;;5111425;28;20195;-81
2022/09/12 11:12:16;;;;;;;0.60;0.60;;;;;;;;;;5111644;28;20260;-80
2022/09/12 11:14:54;;;;;;;0.67;0.67;;;;;;;;;;5110365;28;20205;-81
2022/09/12 11:17:28;;;;;;;0.50;0.50;;;;;;;;;;5100276;28;20743;-81
2022/09/12 11:20:41;;;;;;;0.67;0.67;;;;;;;;;;5111606;28;20199;-81
2022/09/12 11:23:29;;;;;;;0.60;0.60;;;;;;;;;;5086558;28;20210;-81
2022/09/12 11:26:00;;;;;;;0.70;0.70;;;;;;;;;;5111570;28;20203;-80
2022/09/12 11:28:34;;;;;;;0.60;0.60;;;;;;;;;;5111286;28;20195;-81
2022/09/12 11:31:19;;;;;;;0.60;0.60;;;;;;;;;;5111047;28;20219;-81
2022/09/12 11:33:46;;;;;;;0.70;0.70;;;;;;;;;;5111503;28;20192;-80
2022/09/12 11:36:27;;;;;;;0.33;0.33;;;;;;;;;;5110742;28;20595;-80
2022/09/12 11:39:11;;;;;;;0.53;0.53;;;;;;;;;;5110797;28;20255;-84
2022/09/12 11:41:40;;;;;;;0.50;0.50;;;;;;;;;;5111387;28;20295;-80
2022/09/12 11:44:16;;;;;;;0.50;0.50;;;;;;;;;;5112073;28;20206;-81
2022/09/12 11:46:44;;;;;;;0.70;0.70;;;;;;;;;;5111376;28;20199;-80
2022/09/12 11:49:21;;;;;;;0.70;0.70;;;;;;;;;;5111269;28;20211;-86
2022/09/12 11:51:53;;;;;;;0.60;0.60;;;;;;;;;;5110884;28;20311;-80
2022/09/12 11:54:24;;;;;;;0.70;0.70;;;;;;;;;;5111245;28;20211;-79
2022/09/12 11:56:55;;;;;;;0.80;0.80;;;;;;;;;;5111276;28;20208;-79
2022/09/12 11:59:32;;;;;;;0.80;0.80;;;;;;;;;;5110909;28;20202;-79
2022/09/12 12:01:59;;;;;;;0.80;0.80;;;;;;;;;;5110517;28;20268;-79
2022/09/12 12:04:32;;;;;;;0.80;0.80;;;;;;;;;;5111049;28;20592;-80
2022/09/12 12:07:05;;;;;;;0.80;0.80;;;;;;;;;;5110970;28;20203;-80
2022/09/12 12:09:32;;;;;;;0.80;0.80;;;;;;;;;;5110985;28;20198;-80
2022/09/12 12:12:02;;;;;;;0.70;0.70;;;;;;;;;;5110666;28;20241;-79
2022/09/12 12:14:33;;;;;;;0.80;0.80;;;;;;;;;;5109173;28;20203;-79
2022/09/12 12:17:01;;;;;;;0.70;0.70;;;;;;;;;;5096891;28;20223;-79
2022/09/12 12:19:34;;;;;;;1.03;1.03;;;;;;;;;;5111030;28;20195;-80
2022/09/12 12:22:15;;;;;;;0.80;0.80;;;;;;;;;;5110119;28;20223;-79
2022/09/12 12:25:10;;;;;;;1.00;1.00;;;;;;;;;;5110549;28;20227;-79
2022/09/12 12:27:49;;;;;;;0.80;0.80;;;;;;;;;;5091365;28;20615;-79
2022/09/12 12:30:52;;;;;;;0.93;0.93;;;;;;;;;;5110396;28;20230;-79
2022/09/12 12:33:52;;;;;;;0.80;0.80;;;;;;;;;;5100179;28;20204;-80
2022/09/12 12:36:32;;;;;;;0.93;0.93;;;;;;;;;;5106242;28;20199;-80
2022/09/12 12:39:38;;;;;;;0.70;0.70;;;;;;;;;;5110690;28;20248;-82
2022/09/12 12:42:05;;;;;;;2.73;0.80;;;;;;;;;;5100328;28;20207;-80
2022/09/12 12:44:50;;;;;;;1.37;1.27;;;;;;;;;;5110584;28;20226;-80
2022/09/12 12:47:19;;;;;;;0.70;0.70;;;;;;;;;;5110407;28;20315;-79
2022/09/12 12:49:51;;;;;;;0.80;0.80;;;;;;;;;;5113126;28;20218;-79
2022/09/12 12:52:19;;;;;;;0.87;0.87;;;;;;;;;;5114258;28;20310;-80
2022/09/12 12:54:53;;;;;;;0.73;0.73;;;;;;;;;;5114431;28;20211;-82
2022/09/12 12:57:27;;;;;;;0.60;0.60;;;;;;;;;;5114385;28;20632;-81
2022/09/12 12:59:56;;;;;;;0.70;0.70;;;;;;;;;;5114471;28;20634;-79
2022/09/12 13:02:27;;;;;;;0.70;0.70;;;;;;;;;;5113915;28;20204;-79
2022/09/12 13:04:56;;;;;;;0.90;0.90;;;;;;;;;;5114552;28;20652;-80
2022/09/12 13:07:28;;;;;;;0.93;0.93;;;;;;;;;;5113790;28;20340;-80
2022/09/12 13:09:57;;;;;;;0.83;0.83;;;;;;;;;;5114578;28;20588;-79
2022/09/12 13:12:27;;;;;;;0.80;0.80;;;;;;;;;;5114136;28;20227;-79
2022/09/12 13:14:55;;;;;;;1.10;1.10;;;;;;;;;;5111186;28;20694;-82
2022/09/12 13:17:40;;;;;;;1.30;1.20;;;;;;;;;;5103072;28;20227;-80
2022/09/12 13:20:16;;;;;;;1.10;1.10;;;;;;;;;;5114215;28;20202;-82
2022/09/12 13:22:45;;;;;;;0.70;0.70;;;;;;;;;;5114011;28;20221;-80
2022/09/12 13:25:26;;;;;;;0.80;0.80;;;;;;;;;;5113729;28;20199;-80
2022/09/12 13:28:14;;;;;;;0.90;0.90;;;;;;;;;;5113970;28;20202;-79
2022/09/12 13:30:44;;;;;;;0.80;0.80;;;;;;;;;;5114023;28;20306;-81
2022/09/12 13:33:18;;;;;;;1.20;1.20;;;;;;;;;;5113805;28;20207;-79
2022/09/12 13:36:02;;;;;;;1.30;1.30;;;;;;;;;;5113657;28;20202;-79
2022/09/12 13:38:36;;;;;;;1.10;1.10;;;;;;;;;;5113421;28;20204;-80
2022/09/12 13:41:18;;;;;;;1.00;0.93;;;;;;;;;;5113772;28;20211;-79
2022/09/12 13:43:46;;;;;;;1.20;1.20;;;;;;;;;;5113247;28;20592;-80
2022/09/12 13:46:16;;;;;;;0.93;0.93;;;;;;;;;;5113393;28;20227;-81
2022/09/12 13:48:43;;;;;;;1.23;1.13;;;;;;;;;;5113429;28;20705;-80
2022/09/12 13:51:21;;;;;;;1.10;1.10;;;;;;;;;;5113534;28;20224;-79
2022/09/12 13:53:49;;;;;;;0.80;0.80;;;;;;;;;;5113306;28;20268;-81
2022/09/12 13:56:19;;;;;;;0.83;0.83;;;;;;;;;;5113186;28;20830;-79
2022/09/12 13:58:54;;;;;;;1.00;1.00;;;;;;;;;;5112958;28;20645;-80
2022/09/12 14:01:21;;;;;;;1.13;1.13;;;;;;;;;;5100316;28;20206;-79
2022/09/12 14:06:46;;;;;;;1.10;1.10;;;;;;;;;;5113310;28;20303;-79
2022/09/12 14:09:14;;;;;;;1.13;1.07;;;;;;;;;;5113241;28;20199;-80
2022/09/12 14:11:42;;;;;;;1.63;1.53;;;;;;;;;;5113245;28;20230;-79
2022/09/12 14:14:19;;;;;;;1.20;1.20;;;;;;;;;;5112855;28;20203;-79
2022/09/12 14:16:46;;;;;;;1.47;1.43;;;;;;;;;;5098525;28;20231;-79
2022/09/12 14:19:15;;;;;;;1.30;1.30;;;;;;;;;;5113258;28;20196;-80
2022/09/12 14:21:42;;;;;;;1.20;1.20;;;;;;;;;;5112568;28;20231;-80
2022/09/12 14:24:12;;;;;;;1.40;1.30;;;;;;;;;;5112577;28;20257;-79
2022/09/12 14:26:43;;;;;;;1.03;1.03;;;;;;;;;;5112841;28;20680;-79
2022/09/12 14:29:15;;;;;;;1.10;1.10;;;;;;;;;;5112774;28;20286;-79
2022/09/12 14:31:42;;;;;;;1.17;1.17;;;;;;;;;;5112810;28;20711;-80
2022/09/12 14:34:11;;;;;;;1.43;1.33;;;;;;;;;;5112413;28;20704;-79
2022/09/12 14:36:45;;;;;;;1.00;1.00;;;;;;;;;;5112424;28;20253;-80
2022/09/12 14:39:31;;;;;;;1.13;1.13;;;;;;;;;;5099619;28;20199;-79
2022/09/12 14:42:05;;;;;;;1.37;1.27;;;;;;;;;;5112632;28;20206;-79
2022/09/12 14:44:33;;;;;;;2.07;1.43;;;;;;;;;;5112267;28;20200;-79
2022/09/12 14:47:12;;;;;;;1.40;1.33;;;;;;;;;;5111951;28;20689;-80
2022/09/12 14:49:39;;;;;;;1.50;1.40;;;;;;;;;;5112505;27;20684;-79
2022/09/12 14:52:09;;;;;;;1.03;1.03;;;;;;;;;;5111635;28;20740;-79
2022/09/12 14:54:38;;;;;;;1.33;1.23;;;;;;;;;;5112360;28;20238;-79
2022/09/12 14:57:15;;;;;;;1.33;1.33;;;;;;;;;;5111922;28;20200;-79
2022/09/12 14:59:41;;;;;;;1.50;1.40;;;;;;;;;;5112385;28;20211;-79
2022/09/12 15:02:20;;;;;;;1.50;1.40;;;;;;;;;;5112502;28;20252;-79
2022/09/12 15:04:49;;;;;;;1.50;1.40;;;;;;;;;;5099293;28;20704;-79
2022/09/12 15:07:16;;;;;;;1.40;1.30;;;;;;;;;;5111922;28;20286;-80
2022/09/12 15:09:42;;;;;;;1.77;1.67;;;;;;;;;;5112130;28;20222;-79